sensor_id;sensor_type;location;lat;lon;timestamp;temperature;humidity
5647;DHT22;2845;48.626;9.362;2023-07-08T00:02:30;19.30;69.10
5647;DHT22;2845;48.626;9.362;2023-07-08T00:05:05;19.20;69.30
5647;DHT22;2845;48.626;9.362;2023-07-08T00:07:41;19.20;69.90
5647;DHT22;2845;48.626;9.362;2023-07-08T00:10:21;19.20;70.10
5647;DHT22;2845;48.626;9.362;2023-07-08T00:12:58;19.20;70.50
5647;DHT22;2845;48.626;9.362;2023-07-08T00:15:33;19.10;70.80
5647;DHT22;2845;48.626;9.362;2023-07-08T00:18:11;19.10;70.60
5647;DHT22;2845;48.626;9.362;2023-07-08T00:20:47;19.10;70.90
5647;DHT22;2845;48.626;9.362;2023-07-08T00:23:22;19.00;71.10
5647;DHT22;2845;48.626;9.362;2023-07-08T00:25:58;19.00;71.20
5647;DHT22;2845;48.626;9.362;2023-07-08T00:28:33;18.90;71.20
5647;DHT22;2845;48.626;9.362;2023-07-08T00:31:09;18.90;71.30
5647;DHT22;2845;48.626;9.362;2023-07-08T00:33:44;18.90;71.40
5647;DHT22;2845;48.626;9.362;2023-07-08T00:36:18;18.80;71.50
5647;DHT22;2845;48.626;9.362;2023-07-08T00:38:52;18.80;71.80
5647;DHT22;2845;48.626;9.362;2023-07-08T00:41:31;18.70;72.00
5647;DHT22;2845;48.626;9.362;2023-07-08T00:44:09;18.70;72.20
5647;DHT22;2845;48.626;9.362;2023-07-08T00:46:50;18.70;72.70
5647;DHT22;2845;48.626;9.362;2023-07-08T00:49:36;18.60;72.30
5647;DHT22;2845;48.626;9.362;2023-07-08T00:52:17;18.80;72.60
5647;DHT22;2845;48.626;9.362;2023-07-08T00:54:58;18.60;72.50
5647;DHT22;2845;48.626;9.362;2023-07-08T00:57:39;18.50;72.40
5647;DHT22;2845;48.626;9.362;2023-07-08T01:00:16;18.40;72.90
5647;DHT22;2845;48.626;9.362;2023-07-08T01:02:54;18.40;73.00
5647;DHT22;2845;48.626;9.362;2023-07-08T01:05:31;18.30;72.90
5647;DHT22;2845;48.626;9.362;2023-07-08T01:08:07;18.20;72.70
5647;DHT22;2845;48.626;9.362;2023-07-08T01:10:46;18.20;73.80
5647;DHT22;2845;48.626;9.362;2023-07-08T01:13:25;18.10;73.10
5647;DHT22;2845;48.626;9.362;2023-07-08T01:16:00;18.10;73.50
5647;DHT22;2845;48.626;9.362;2023-07-08T01:18:34;18.00;73.80
5647;DHT22;2845;48.626;9.362;2023-07-08T01:21:30;18.10;73.50
5647;DHT22;2845;48.626;9.362;2023-07-08T01:24:08;17.90;74.00
5647;DHT22;2845;48.626;9.362;2023-07-08T01:26:44;17.80;74.10
5647;DHT22;2845;48.626;9.362;2023-07-08T01:29:19;17.80;74.70
5647;DHT22;2845;48.626;9.362;2023-07-08T01:31:55;17.70;74.80
5647;DHT22;2845;48.626;9.362;2023-07-08T01:34:30;17.70;74.50
5647;DHT22;2845;48.626;9.362;2023-07-08T01:37:05;17.40;74.80
5647;DHT22;2845;48.626;9.362;2023-07-08T01:39:42;17.60;74.90
5647;DHT22;2845;48.626;9.362;2023-07-08T01:42:16;17.60;74.90
5647;DHT22;2845;48.626;9.362;2023-07-08T01:44:51;17.40;74.40
5647;DHT22;2845;48.626;9.362;2023-07-08T01:47:26;17.30;75.00
5647;DHT22;2845;48.626;9.362;2023-07-08T01:50:01;17.30;75.20
5647;DHT22;2845;48.626;9.362;2023-07-08T01:52:36;17.20;75.30
5647;DHT22;2845;48.626;9.362;2023-07-08T01:55:12;17.20;75.70
5647;DHT22;2845;48.626;9.362;2023-07-08T01:57:46;17.30;76.10
5647;DHT22;2845;48.626;9.362;2023-07-08T02:00:21;17.20;75.60
5647;DHT22;2845;48.626;9.362;2023-07-08T02:02:55;17.20;75.50
5647;DHT22;2845;48.626;9.362;2023-07-08T02:05:30;17.20;75.70
5647;DHT22;2845;48.626;9.362;2023-07-08T02:08:04;17.10;76.30
5647;DHT22;2845;48.626;9.362;2023-07-08T02:10:41;17.10;76.40
5647;DHT22;2845;48.626;9.362;2023-07-08T02:13:16;17.00;76.50
5647;DHT22;2845;48.626;9.362;2023-07-08T02:15:51;16.80;76.00
5647;DHT22;2845;48.626;9.362;2023-07-08T02:18:25;17.00;77.20
5647;DHT22;2845;48.626;9.362;2023-07-08T02:21:00;16.90;76.50
5647;DHT22;2845;48.626;9.362;2023-07-08T02:23:34;16.90;76.80
5647;DHT22;2845;48.626;9.362;2023-07-08T02:26:10;16.80;76.90
5647;DHT22;2845;48.626;9.362;2023-07-08T02:28:44;16.80;77.50
5647;DHT22;2845;48.626;9.362;2023-07-08T02:31:18;16.70;77.20
5647;DHT22;2845;48.626;9.362;2023-07-08T02:33:54;16.70;77.60
5647;DHT22;2845;48.626;9.362;2023-07-08T02:36:28;16.70;77.70
5647;DHT22;2845;48.626;9.362;2023-07-08T02:39:02;16.70;77.90
5647;DHT22;2845;48.626;9.362;2023-07-08T02:41:38;16.60;77.90
5647;DHT22;2845;48.626;9.362;2023-07-08T02:44:12;16.80;78.00
5647;DHT22;2845;48.626;9.362;2023-07-08T02:46:46;16.70;77.60
5647;DHT22;2845;48.626;9.362;2023-07-08T02:49:21;16.60;77.80
5647;DHT22;2845;48.626;9.362;2023-07-08T02:51:55;16.60;78.70
5647;DHT22;2845;48.626;9.362;2023-07-08T02:54:29;16.60;79.30
5647;DHT22;2845;48.626;9.362;2023-07-08T02:57:05;16.50;78.50
5647;DHT22;2845;48.626;9.362;2023-07-08T02:59:39;16.40;79.50
5647;DHT22;2845;48.626;9.362;2023-07-08T03:02:14;16.60;79.50
5647;DHT22;2845;48.626;9.362;2023-07-08T03:04:48;16.40;79.00
5647;DHT22;2845;48.626;9.362;2023-07-08T03:07:23;16.40;79.40
5647;DHT22;2845;48.626;9.362;2023-07-08T03:09:58;16.30;79.60
5647;DHT22;2845;48.626;9.362;2023-07-08T03:12:33;16.40;80.20
5647;DHT22;2845;48.626;9.362;2023-07-08T03:15:08;16.30;79.90
5647;DHT22;2845;48.626;9.362;2023-07-08T03:17:43;16.30;80.40
5647;DHT22;2845;48.626;9.362;2023-07-08T03:20:18;16.30;80.70
5647;DHT22;2845;48.626;9.362;2023-07-08T03:22:52;16.40;80.50
5647;DHT22;2845;48.626;9.362;2023-07-08T03:25:26;16.40;80.40
5647;DHT22;2845;48.626;9.362;2023-07-08T03:28:02;16.30;80.90
5647;DHT22;2845;48.626;9.362;2023-07-08T03:30:39;16.30;80.80
5647;DHT22;2845;48.626;9.362;2023-07-08T03:33:14;16.40;81.10
5647;DHT22;2845;48.626;9.362;2023-07-08T03:35:48;16.30;80.90
5647;DHT22;2845;48.626;9.362;2023-07-08T03:38:22;16.30;81.50
5647;DHT22;2845;48.626;9.362;2023-07-08T03:40:57;16.20;81.20
5647;DHT22;2845;48.626;9.362;2023-07-08T03:43:33;16.20;81.50
5647;DHT22;2845;48.626;9.362;2023-07-08T03:46:08;16.50;81.90
5647;DHT22;2845;48.626;9.362;2023-07-08T03:48:44;16.30;81.60
5647;DHT22;2845;48.626;9.362;2023-07-08T03:51:22;16.20;81.70
5647;DHT22;2845;48.626;9.362;2023-07-08T03:53:57;16.20;82.30
5647;DHT22;2845;48.626;9.362;2023-07-08T03:56:34;16.20;82.40
5647;DHT22;2845;48.626;9.362;2023-07-08T03:59:10;16.30;82.30
5647;DHT22;2845;48.626;9.362;2023-07-08T04:01:44;16.30;82.10
5647;DHT22;2845;48.626;9.362;2023-07-08T04:04:18;16.40;81.90
5647;DHT22;2845;48.626;9.362;2023-07-08T04:06:53;16.40;81.80
5647;DHT22;2845;48.626;9.362;2023-07-08T04:09:27;16.40;82.10
5647;DHT22;2845;48.626;9.362;2023-07-08T04:12:02;16.40;82.10
5647;DHT22;2845;48.626;9.362;2023-07-08T04:14:39;16.50;82.30
5647;DHT22;2845;48.626;9.362;2023-07-08T04:17:17;16.60;82.20
5647;DHT22;2845;48.626;9.362;2023-07-08T04:19:51;16.60;81.90
5647;DHT22;2845;48.626;9.362;2023-07-08T04:22:26;16.60;81.80
5647;DHT22;2845;48.626;9.362;2023-07-08T04:25:00;16.70;82.10
5647;DHT22;2845;48.626;9.362;2023-07-08T04:27:38;16.70;81.90
5647;DHT22;2845;48.626;9.362;2023-07-08T04:30:21;16.80;82.30
5647;DHT22;2845;48.626;9.362;2023-07-08T04:32:56;16.90;82.50
5647;DHT22;2845;48.626;9.362;2023-07-08T04:35:30;17.00;82.30
5647;DHT22;2845;48.626;9.362;2023-07-08T04:38:05;17.10;82.10
5647;DHT22;2845;48.626;9.362;2023-07-08T04:40:42;17.10;81.70
5647;DHT22;2845;48.626;9.362;2023-07-08T04:43:16;17.10;81.90
5647;DHT22;2845;48.626;9.362;2023-07-08T04:45:53;17.10;82.00
5647;DHT22;2845;48.626;9.362;2023-07-08T04:48:27;17.40;82.10
5647;DHT22;2845;48.626;9.362;2023-07-08T04:51:01;17.70;81.80
5647;DHT22;2845;48.626;9.362;2023-07-08T04:53:36;17.90;81.10
5647;DHT22;2845;48.626;9.362;2023-07-08T04:56:10;18.00;80.70
5647;DHT22;2845;48.626;9.362;2023-07-08T04:58:44;18.10;80.40
5647;DHT22;2845;48.626;9.362;2023-07-08T05:01:20;18.20;80.10
5647;DHT22;2845;48.626;9.362;2023-07-08T05:03:54;18.30;79.90
5647;DHT22;2845;48.626;9.362;2023-07-08T05:06:28;18.50;79.80
5647;DHT22;2845;48.626;9.362;2023-07-08T05:09:03;18.60;79.70
5647;DHT22;2845;48.626;9.362;2023-07-08T05:11:37;18.60;79.50
5647;DHT22;2845;48.626;9.362;2023-07-08T05:14:12;18.80;79.30
5647;DHT22;2845;48.626;9.362;2023-07-08T05:16:48;19.80;79.30
5647;DHT22;2845;48.626;9.362;2023-07-08T05:19:22;19.30;78.60
5647;DHT22;2845;48.626;9.362;2023-07-08T05:21:56;19.10;78.20
5647;DHT22;2845;48.626;9.362;2023-07-08T05:24:31;19.30;78.00
5647;DHT22;2845;48.626;9.362;2023-07-08T05:27:05;19.50;77.80
5647;DHT22;2845;48.626;9.362;2023-07-08T05:29:39;19.70;77.30
5647;DHT22;2845;48.626;9.362;2023-07-08T05:32:14;19.90;77.00
5647;DHT22;2845;48.626;9.362;2023-07-08T05:34:49;20.00;76.50
5647;DHT22;2845;48.626;9.362;2023-07-08T05:37:23;20.60;76.40
5647;DHT22;2845;48.626;9.362;2023-07-08T05:39:58;20.20;75.90
5647;DHT22;2845;48.626;9.362;2023-07-08T05:42:35;20.90;76.10
5647;DHT22;2845;48.626;9.362;2023-07-08T05:45:09;20.50;75.50
5647;DHT22;2845;48.626;9.362;2023-07-08T05:47:45;17.40;73.60
5647;DHT22;2845;48.626;9.362;2023-07-08T05:50:19;20.80;74.80
5647;DHT22;2845;48.626;9.362;2023-07-08T05:52:53;21.00;74.80
5647;DHT22;2845;48.626;9.362;2023-07-08T05:55:28;21.10;74.50
5647;DHT22;2845;48.626;9.362;2023-07-08T05:58:02;21.30;74.20
5647;DHT22;2845;48.626;9.362;2023-07-08T06:00:55;21.40;73.80
5647;DHT22;2845;48.626;9.362;2023-07-08T06:03:32;21.50;73.70
5647;DHT22;2845;48.626;9.362;2023-07-08T06:06:06;21.60;73.40
5647;DHT22;2845;48.626;9.362;2023-07-08T06:08:41;21.50;73.10
5647;DHT22;2845;48.626;9.362;2023-07-08T06:11:15;21.50;72.70
5647;DHT22;2845;48.626;9.362;2023-07-08T06:13:49;21.60;72.50
5647;DHT22;2845;48.626;9.362;2023-07-08T06:16:23;21.60;72.40
5647;DHT22;2845;48.626;9.362;2023-07-08T06:19:14;21.50;72.00
5647;DHT22;2845;48.626;9.362;2023-07-08T06:21:50;21.60;72.20
5647;DHT22;2845;48.626;9.362;2023-07-08T06:24:24;21.60;71.90
5647;DHT22;2845;48.626;9.362;2023-07-08T06:26:58;21.60;71.90
5647;DHT22;2845;48.626;9.362;2023-07-08T06:29:33;21.90;71.90
5647;DHT22;2845;48.626;9.362;2023-07-08T06:32:08;21.80;71.60
5647;DHT22;2845;48.626;9.362;2023-07-08T06:34:44;21.90;71.50
5647;DHT22;2845;48.626;9.362;2023-07-08T06:37:18;22.10;71.50
5647;DHT22;2845;48.626;9.362;2023-07-08T06:39:52;22.30;71.50
5647;DHT22;2845;48.626;9.362;2023-07-08T06:42:26;22.40;71.40
5647;DHT22;2845;48.626;9.362;2023-07-08T06:45:02;22.50;71.60
5647;DHT22;2845;48.626;9.362;2023-07-08T06:47:37;22.60;71.70
5647;DHT22;2845;48.626;9.362;2023-07-08T06:50:13;22.80;71.90
5647;DHT22;2845;48.626;9.362;2023-07-08T06:52:47;23.90;72.30
5647;DHT22;2845;48.626;9.362;2023-07-08T06:55:21;22.50;71.60
5647;DHT22;2845;48.626;9.362;2023-07-08T06:57:55;22.50;71.50
5647;DHT22;2845;48.626;9.362;2023-07-08T07:00:29;22.60;71.30
5647;DHT22;2845;48.626;9.362;2023-07-08T07:03:03;22.70;71.00
5647;DHT22;2845;48.626;9.362;2023-07-08T07:05:39;22.90;70.60
5647;DHT22;2845;48.626;9.362;2023-07-08T07:08:13;23.10;70.20
5647;DHT22;2845;48.626;9.362;2023-07-08T07:10:47;23.20;70.10
5647;DHT22;2845;48.626;9.362;2023-07-08T07:13:22;24.30;69.90
5647;DHT22;2845;48.626;9.362;2023-07-08T07:15:56;23.50;69.70
5647;DHT22;2845;48.626;9.362;2023-07-08T07:18:31;23.70;69.00
5647;DHT22;2845;48.626;9.362;2023-07-08T07:21:06;25.60;69.60
5647;DHT22;2845;48.626;9.362;2023-07-08T07:23:40;24.10;68.90
5647;DHT22;2845;48.626;9.362;2023-07-08T07:26:14;25.20;69.50
5647;DHT22;2845;48.626;9.362;2023-07-08T07:28:49;23.90;69.10
5647;DHT22;2845;48.626;9.362;2023-07-08T07:31:23;24.10;68.90
5647;DHT22;2845;48.626;9.362;2023-07-08T07:33:57;24.20;68.70
5647;DHT22;2845;48.626;9.362;2023-07-08T07:36:33;24.30;68.60
5647;DHT22;2845;48.626;9.362;2023-07-08T07:39:08;24.40;68.50
5647;DHT22;2845;48.626;9.362;2023-07-08T07:41:42;24.50;68.40
5647;DHT22;2845;48.626;9.362;2023-07-08T07:44:16;24.50;68.00
5647;DHT22;2845;48.626;9.362;2023-07-08T07:46:52;24.60;68.20
5647;DHT22;2845;48.626;9.362;2023-07-08T07:49:27;24.80;68.30
5647;DHT22;2845;48.626;9.362;2023-07-08T07:52:03;25.00;68.20
5647;DHT22;2845;48.626;9.362;2023-07-08T07:54:38;24.90;68.00
5647;DHT22;2845;48.626;9.362;2023-07-08T07:57:13;24.90;68.00
5647;DHT22;2845;48.626;9.362;2023-07-08T07:59:47;24.80;67.90
5647;DHT22;2845;48.626;9.362;2023-07-08T08:02:22;24.60;68.10
5647;DHT22;2845;48.626;9.362;2023-07-08T08:04:56;24.60;68.30
5647;DHT22;2845;48.626;9.362;2023-07-08T08:07:32;24.60;68.30
5647;DHT22;2845;48.626;9.362;2023-07-08T08:10:07;24.60;68.20
5647;DHT22;2845;48.626;9.362;2023-07-08T08:12:41;24.60;68.40
5647;DHT22;2845;48.626;9.362;2023-07-08T08:15:25;25.00;68.50
5647;DHT22;2845;48.626;9.362;2023-07-08T08:17:59;24.70;68.20
5647;DHT22;2845;48.626;9.362;2023-07-08T08:20:33;24.80;67.60
5647;DHT22;2845;48.626;9.362;2023-07-08T08:23:09;24.90;67.50
5647;DHT22;2845;48.626;9.362;2023-07-08T08:25:43;25.00;67.40
5647;DHT22;2845;48.626;9.362;2023-07-08T08:28:17;25.40;67.70
5647;DHT22;2845;48.626;9.362;2023-07-08T08:30:52;25.30;67.50
5647;DHT22;2845;48.626;9.362;2023-07-08T08:33:26;25.40;67.40
5647;DHT22;2845;48.626;9.362;2023-07-08T08:36:00;25.60;67.40
5647;DHT22;2845;48.626;9.362;2023-07-08T08:38:37;25.50;67.30
5647;DHT22;2845;48.626;9.362;2023-07-08T08:41:13;28.20;69.00
5647;DHT22;2845;48.626;9.362;2023-07-08T08:43:49;28.00;69.40
5647;DHT22;2845;48.626;9.362;2023-07-08T08:46:30;25.20;67.50
5647;DHT22;2845;48.626;9.362;2023-07-08T08:49:18;25.10;67.40
5647;DHT22;2845;48.626;9.362;2023-07-08T08:51:58;25.10;67.90
5647;DHT22;2845;48.626;9.362;2023-07-08T08:54:35;24.90;67.90
5647;DHT22;2845;48.626;9.362;2023-07-08T08:57:17;25.40;68.40
5647;DHT22;2845;48.626;9.362;2023-07-08T09:00:09;25.10;68.20
5647;DHT22;2845;48.626;9.362;2023-07-08T09:02:51;25.10;68.10
5647;DHT22;2845;48.626;9.362;2023-07-08T09:05:27;25.30;68.40
5647;DHT22;2845;48.626;9.362;2023-07-08T09:08:05;25.60;68.00
5647;DHT22;2845;48.626;9.362;2023-07-08T09:10:48;25.80;66.90
5647;DHT22;2845;48.626;9.362;2023-07-08T09:13:29;27.50;67.90
5647;DHT22;2845;48.626;9.362;2023-07-08T09:16:09;26.10;67.10
5647;DHT22;2845;48.626;9.362;2023-07-08T09:18:57;28.70;68.70
5647;DHT22;2845;48.626;9.362;2023-07-08T09:21:40;26.00;67.20
5647;DHT22;2845;48.626;9.362;2023-07-08T09:24:20;26.00;67.30
5647;DHT22;2845;48.626;9.362;2023-07-08T09:27:02;26.10;66.80
5647;DHT22;2845;48.626;9.362;2023-07-08T09:29:37;26.40;67.00
5647;DHT22;2845;48.626;9.362;2023-07-08T09:32:16;26.60;66.90
5647;DHT22;2845;48.626;9.362;2023-07-08T09:34:53;28.00;67.50
5647;DHT22;2845;48.626;9.362;2023-07-08T09:37:30;27.50;66.70
5647;DHT22;2845;48.626;9.362;2023-07-08T09:40:16;27.20;65.60
5647;DHT22;2845;48.626;9.362;2023-07-08T09:42:57;27.40;65.30
5647;DHT22;2845;48.626;9.362;2023-07-08T09:45:41;28.30;65.50
5647;DHT22;2845;48.626;9.362;2023-07-08T09:48:20;27.50;64.60
5647;DHT22;2845;48.626;9.362;2023-07-08T09:50:57;27.40;64.60
5647;DHT22;2845;48.626;9.362;2023-07-08T09:53:33;29.40;66.00
5647;DHT22;2845;48.626;9.362;2023-07-08T09:56:08;28.10;65.20
5647;DHT22;2845;48.626;9.362;2023-07-08T09:58:45;27.30;64.80
5647;DHT22;2845;48.626;9.362;2023-07-08T10:01:25;27.30;65.00
5647;DHT22;2845;48.626;9.362;2023-07-08T10:04:01;27.50;64.70
5647;DHT22;2845;48.626;9.362;2023-07-08T10:06:36;27.80;64.50
5647;DHT22;2845;48.626;9.362;2023-07-08T10:09:12;28.90;64.40
5647;DHT22;2845;48.626;9.362;2023-07-08T10:11:56;30.20;65.20
5647;DHT22;2845;48.626;9.362;2023-07-08T10:14:38;28.20;63.50
5647;DHT22;2845;48.626;9.362;2023-07-08T10:17:16;28.60;63.00
5647;DHT22;2845;48.626;9.362;2023-07-08T10:19:52;29.40;63.30
5647;DHT22;2845;48.626;9.362;2023-07-08T10:22:36;29.50;62.50
5647;DHT22;2845;48.626;9.362;2023-07-08T10:25:24;29.50;62.20
5647;DHT22;2845;48.626;9.362;2023-07-08T10:28:19;29.70;61.50
5647;DHT22;2845;48.626;9.362;2023-07-08T10:31:09;29.60;61.00
5647;DHT22;2845;48.626;9.362;2023-07-08T10:34:10;32.60;62.70
5647;DHT22;2845;48.626;9.362;2023-07-08T10:36:55;29.20;61.00
5647;DHT22;2845;48.626;9.362;2023-07-08T10:39:48;28.90;61.20
5647;DHT22;2845;48.626;9.362;2023-07-08T10:42:43;29.50;61.80
5647;DHT22;2845;48.626;9.362;2023-07-08T10:45:30;28.60;61.60
5647;DHT22;2845;48.626;9.362;2023-07-08T10:48:24;29.20;61.70
5647;DHT22;2845;48.626;9.362;2023-07-08T10:51:14;28.30;61.30
5647;DHT22;2845;48.626;9.362;2023-07-08T10:57:14;28.30;61.90
5647;DHT22;2845;48.626;9.362;2023-07-08T10:59:59;28.10;60.90
5647;DHT22;2845;48.626;9.362;2023-07-08T11:03:03;28.10;61.00
5647;DHT22;2845;48.626;9.362;2023-07-08T11:05:56;28.20;61.70
5647;DHT22;2845;48.626;9.362;2023-07-08T11:08:39;29.30;62.80
5647;DHT22;2845;48.626;9.362;2023-07-08T11:11:29;28.40;61.70
5647;DHT22;2845;48.626;9.362;2023-07-08T11:14:12;29.20;62.30
5647;DHT22;2845;48.626;9.362;2023-07-08T11:16:51;28.60;62.10
5647;DHT22;2845;48.626;9.362;2023-07-08T11:19:32;28.70;61.50
5647;DHT22;2845;48.626;9.362;2023-07-08T11:22:13;28.60;61.00
5647;DHT22;2845;48.626;9.362;2023-07-08T11:24:49;28.70;60.80
5647;DHT22;2845;48.626;9.362;2023-07-08T11:27:28;28.60;61.50
5647;DHT22;2845;48.626;9.362;2023-07-08T11:30:08;28.60;61.40
5647;DHT22;2845;48.626;9.362;2023-07-08T11:32:49;28.80;61.50
5647;DHT22;2845;48.626;9.362;2023-07-08T11:35:35;28.90;61.80
5647;DHT22;2845;48.626;9.362;2023-07-08T11:38:14;29.00;60.90
5647;DHT22;2845;48.626;9.362;2023-07-08T11:40:52;29.00;60.30
5647;DHT22;2845;48.626;9.362;2023-07-08T11:43:34;29.00;60.90
5647;DHT22;2845;48.626;9.362;2023-07-08T11:46:26;29.70;61.70
5647;DHT22;2845;48.626;9.362;2023-07-08T11:49:04;29.10;61.60
5647;DHT22;2845;48.626;9.362;2023-07-08T11:51:43;29.20;60.70
5647;DHT22;2845;48.626;9.362;2023-07-08T11:54:27;29.30;61.00
5647;DHT22;2845;48.626;9.362;2023-07-08T11:57:04;29.30;60.60
5647;DHT22;2845;48.626;9.362;2023-07-08T11:59:41;29.30;61.10
5647;DHT22;2845;48.626;9.362;2023-07-08T12:02:19;29.40;61.40
5647;DHT22;2845;48.626;9.362;2023-07-08T12:04:57;30.50;62.00
5647;DHT22;2845;48.626;9.362;2023-07-08T12:07:40;29.40;61.50
5647;DHT22;2845;48.626;9.362;2023-07-08T12:10:26;29.40;61.60
5647;DHT22;2845;48.626;9.362;2023-07-08T12:13:01;29.30;61.40
5647;DHT22;2845;48.626;9.362;2023-07-08T12:15:37;32.10;62.80
5647;DHT22;2845;48.626;9.362;2023-07-08T12:18:14;30.30;61.00
5647;DHT22;2845;48.626;9.362;2023-07-08T12:20:52;29.50;60.90
5647;DHT22;2845;48.626;9.362;2023-07-08T12:23:29;29.60;60.30
5647;DHT22;2845;48.626;9.362;2023-07-08T12:26:05;32.30;61.90
5647;DHT22;2845;48.626;9.362;2023-07-08T12:28:40;30.30;60.60
5647;DHT22;2845;48.626;9.362;2023-07-08T12:31:17;29.90;59.40
5647;DHT22;2845;48.626;9.362;2023-07-08T12:33:54;32.90;61.70
5647;DHT22;2845;48.626;9.362;2023-07-08T12:36:30;30.00;59.70
5647;DHT22;2845;48.626;9.362;2023-07-08T12:39:10;30.00;60.90
5647;DHT22;2845;48.626;9.362;2023-07-08T12:41:49;30.10;60.10
5647;DHT22;2845;48.626;9.362;2023-07-08T12:44:26;30.20;60.00
5647;DHT22;2845;48.626;9.362;2023-07-08T12:47:01;30.20;60.50
5647;DHT22;2845;48.626;9.362;2023-07-08T12:49:36;30.30;58.90
5647;DHT22;2845;48.626;9.362;2023-07-08T12:52:20;30.30;59.10
5647;DHT22;2845;48.626;9.362;2023-07-08T12:54:55;30.40;57.80
5647;DHT22;2845;48.626;9.362;2023-07-08T12:57:30;30.40;58.70
5647;DHT22;2845;48.626;9.362;2023-07-08T13:00:06;30.50;58.80
5647;DHT22;2845;48.626;9.362;2023-07-08T13:02:47;30.50;58.50
5647;DHT22;2845;48.626;9.362;2023-07-08T13:05:24;30.50;58.80
5647;DHT22;2845;48.626;9.362;2023-07-08T13:08:00;30.60;59.90
5647;DHT22;2845;48.626;9.362;2023-07-08T13:10:35;30.70;58.80
5647;DHT22;2845;48.626;9.362;2023-07-08T13:13:15;30.80;59.60
5647;DHT22;2845;48.626;9.362;2023-07-08T13:15:54;31.00;58.50
5647;DHT22;2845;48.626;9.362;2023-07-08T13:18:32;31.10;57.80
5647;DHT22;2845;48.626;9.362;2023-07-08T13:21:12;31.20;57.50
5647;DHT22;2845;48.626;9.362;2023-07-08T13:23:47;31.30;57.70
5647;DHT22;2845;48.626;9.362;2023-07-08T13:26:23;31.30;57.30
5647;DHT22;2845;48.626;9.362;2023-07-08T13:29:01;31.50;57.70
5647;DHT22;2845;48.626;9.362;2023-07-08T13:31:39;31.80;57.10
5647;DHT22;2845;48.626;9.362;2023-07-08T13:34:17;32.10;56.30
5647;DHT22;2845;48.626;9.362;2023-07-08T13:36:52;32.20;57.00
5647;DHT22;2845;48.626;9.362;2023-07-08T13:39:31;32.30;55.30
5647;DHT22;2845;48.626;9.362;2023-07-08T13:42:07;32.50;57.30
5647;DHT22;2845;48.626;9.362;2023-07-08T13:44:45;32.60;55.80
5647;DHT22;2845;48.626;9.362;2023-07-08T13:47:22;32.50;57.10
5647;DHT22;2845;48.626;9.362;2023-07-08T13:50:07;33.40;57.70
5647;DHT22;2845;48.626;9.362;2023-07-08T13:52:53;32.20;56.40
5647;DHT22;2845;48.626;9.362;2023-07-08T13:55:28;32.50;55.10
5647;DHT22;2845;48.626;9.362;2023-07-08T13:58:03;32.90;55.00
5647;DHT22;2845;48.626;9.362;2023-07-08T14:00:40;33.20;54.30
5647;DHT22;2845;48.626;9.362;2023-07-08T14:03:17;33.30;56.10
5647;DHT22;2845;48.626;9.362;2023-07-08T14:05:51;33.50;54.90
5647;DHT22;2845;48.626;9.362;2023-07-08T14:08:26;33.90;55.20
5647;DHT22;2845;48.626;9.362;2023-07-08T14:11:00;34.30;55.30
5647;DHT22;2845;48.626;9.362;2023-07-08T14:13:35;34.50;55.00
5647;DHT22;2845;48.626;9.362;2023-07-08T14:16:24;34.70;52.90
5647;DHT22;2845;48.626;9.362;2023-07-08T14:19:02;34.70;52.60
5647;DHT22;2845;48.626;9.362;2023-07-08T14:21:37;34.70;52.70
5647;DHT22;2845;48.626;9.362;2023-07-08T14:24:13;34.70;52.80
5647;DHT22;2845;48.626;9.362;2023-07-08T14:26:47;34.60;53.20
5647;DHT22;2845;48.626;9.362;2023-07-08T14:29:22;34.60;53.10
5647;DHT22;2845;48.626;9.362;2023-07-08T14:31:58;34.40;51.50
5647;DHT22;2845;48.626;9.362;2023-07-08T14:34:34;34.40;53.70
5647;DHT22;2845;48.626;9.362;2023-07-08T14:37:13;34.00;53.00
5647;DHT22;2845;48.626;9.362;2023-07-08T14:39:48;33.50;54.10
5647;DHT22;2845;48.626;9.362;2023-07-08T14:42:23;33.60;53.10
5647;DHT22;2845;48.626;9.362;2023-07-08T14:44:57;33.70;51.70
5647;DHT22;2845;48.626;9.362;2023-07-08T14:47:33;33.90;52.60
5647;DHT22;2845;48.626;9.362;2023-07-08T14:50:13;34.00;53.70
5647;DHT22;2845;48.626;9.362;2023-07-08T14:52:49;34.10;52.00
5647;DHT22;2845;48.626;9.362;2023-07-08T14:55:23;34.40;53.30
5647;DHT22;2845;48.626;9.362;2023-07-08T14:57:58;34.70;52.10
5647;DHT22;2845;48.626;9.362;2023-07-08T15:00:33;35.10;51.80
5647;DHT22;2845;48.626;9.362;2023-07-08T15:03:08;35.00;52.20
5647;DHT22;2845;48.626;9.362;2023-07-08T15:05:43;35.20;51.80
5647;DHT22;2845;48.626;9.362;2023-07-08T15:08:17;35.60;51.10
5647;DHT22;2845;48.626;9.362;2023-07-08T15:10:52;35.80;51.00
5647;DHT22;2845;48.626;9.362;2023-07-08T15:13:28;36.10;50.40
5647;DHT22;2845;48.626;9.362;2023-07-08T15:16:04;36.50;49.40
5647;DHT22;2845;48.626;9.362;2023-07-08T15:18:39;36.70;49.70
5647;DHT22;2845;48.626;9.362;2023-07-08T15:21:15;36.90;49.80
5647;DHT22;2845;48.626;9.362;2023-07-08T15:23:49;37.00;48.50
5647;DHT22;2845;48.626;9.362;2023-07-08T15:26:23;37.20;49.30
5647;DHT22;2845;48.626;9.362;2023-07-08T15:28:58;37.40;49.10
5647;DHT22;2845;48.626;9.362;2023-07-08T15:31:34;36.90;49.10
5647;DHT22;2845;48.626;9.362;2023-07-08T15:34:12;36.10;48.60
5647;DHT22;2845;48.626;9.362;2023-07-08T15:36:48;35.40;50.00
5647;DHT22;2845;48.626;9.362;2023-07-08T15:39:23;34.80;51.20
5647;DHT22;2845;48.626;9.362;2023-07-08T15:41:58;34.30;51.90
5647;DHT22;2845;48.626;9.362;2023-07-08T15:44:32;33.90;51.50
5647;DHT22;2845;48.626;9.362;2023-07-08T15:47:10;33.60;52.30
5647;DHT22;2845;48.626;9.362;2023-07-08T15:49:47;33.50;51.00
5647;DHT22;2845;48.626;9.362;2023-07-08T15:52:21;33.30;50.10
5647;DHT22;2845;48.626;9.362;2023-07-08T15:54:55;33.10;50.30
5647;DHT22;2845;48.626;9.362;2023-07-08T15:57:29;33.00;51.60
5647;DHT22;2845;48.626;9.362;2023-07-08T16:00:05;32.80;53.80
5647;DHT22;2845;48.626;9.362;2023-07-08T16:02:40;32.70;52.10
5647;DHT22;2845;48.626;9.362;2023-07-08T16:05:16;32.70;52.30
5647;DHT22;2845;48.626;9.362;2023-07-08T16:07:53;32.60;51.20
5647;DHT22;2845;48.626;9.362;2023-07-08T16:10:29;32.50;52.10
5647;DHT22;2845;48.626;9.362;2023-07-08T16:13:04;32.40;51.50
5647;DHT22;2845;48.626;9.362;2023-07-08T16:15:39;32.30;54.70
5647;DHT22;2845;48.626;9.362;2023-07-08T16:18:15;32.20;53.70
5647;DHT22;2845;48.626;9.362;2023-07-08T16:20:51;32.10;55.80
5647;DHT22;2845;48.626;9.362;2023-07-08T16:23:25;32.00;55.40
5647;DHT22;2845;48.626;9.362;2023-07-08T16:26:01;31.80;51.70
5647;DHT22;2845;48.626;9.362;2023-07-08T16:28:39;31.80;52.10
5647;DHT22;2845;48.626;9.362;2023-07-08T16:31:17;31.70;55.20
5647;DHT22;2845;48.626;9.362;2023-07-08T16:33:53;31.60;51.50
5647;DHT22;2845;48.626;9.362;2023-07-08T16:36:30;31.60;53.20
5647;DHT22;2845;48.626;9.362;2023-07-08T16:39:04;31.50;55.30
5647;DHT22;2845;48.626;9.362;2023-07-08T16:41:38;31.40;55.50
5647;DHT22;2845;48.626;9.362;2023-07-08T16:44:14;31.40;56.20
5647;DHT22;2845;48.626;9.362;2023-07-08T16:46:49;31.40;53.20
5647;DHT22;2845;48.626;9.362;2023-07-08T16:49:24;31.50;52.00
5647;DHT22;2845;48.626;9.362;2023-07-08T16:51:59;31.60;53.60
5647;DHT22;2845;48.626;9.362;2023-07-08T16:54:34;31.60;53.30
5647;DHT22;2845;48.626;9.362;2023-07-08T16:57:09;31.60;52.50
5647;DHT22;2845;48.626;9.362;2023-07-08T16:59:44;31.50;52.00
5647;DHT22;2845;48.626;9.362;2023-07-08T17:02:19;31.40;52.10
5647;DHT22;2845;48.626;9.362;2023-07-08T17:04:54;31.40;52.90
5647;DHT22;2845;48.626;9.362;2023-07-08T17:07:31;31.40;55.60
5647;DHT22;2845;48.626;9.362;2023-07-08T17:10:07;31.30;55.40